createdAt,value
2023-04-03T00:01:50.390Z,96219.84
2023-04-03T00:06:53.522Z,96216.56
2023-04-03T00:11:56.608Z,96215.38
2023-04-03T00:16:59.036Z,96221.88
2023-04-03T00:22:01.378Z,96212.31
2023-04-03T00:27:04.621Z,96217.00
2023-04-03T00:32:07.071Z,96221.03
2023-04-03T00:37:09.469Z,96214.50
2023-04-03T00:42:12.025Z,96214.97
2023-04-03T00:47:14.400Z,96218.63
2023-04-03T00:52:17.330Z,96217.03
2023-04-03T00:57:20.788Z,96214.75
2023-04-03T01:02:23.288Z,96207.63
2023-04-03T01:07:26.058Z,96211.28
2023-04-03T01:12:29.162Z,96220.03
2023-04-03T01:17:31.621Z,96215.56
2023-04-03T01:22:34.068Z,96221.47
2023-04-03T01:27:37.270Z,96220.81
2023-04-03T01:32:39.654Z,96229.59
2023-04-03T01:37:42.062Z,96222.28
2023-04-03T01:42:44.399Z,96221.47
2023-04-03T01:47:47.608Z,96218.19
2023-04-03T01:52:50.819Z,96227.16
2023-04-03T01:57:55.462Z,96217.00
2023-04-03T02:02:58.812Z,96219.03
2023-04-03T02:08:02.089Z,96214.53
2023-04-03T02:13:05.286Z,96225.16
2023-04-03T02:18:18.026Z,96219.25
2023-04-03T02:23:20.405Z,96206.81
2023-04-03T02:28:23.574Z,96208.06
2023-04-03T02:33:26.126Z,96201.34
2023-04-03T02:38:28.425Z,96200.69
2023-04-03T02:43:30.836Z,96199.91
2023-04-03T02:48:33.404Z,96202.75
2023-04-03T02:53:36.148Z,96211.50
2023-04-03T02:58:38.638Z,96208.06
2023-04-03T03:03:41.028Z,96207.63
2023-04-03T03:08:43.774Z,96207.25
2023-04-03T03:13:46.189Z,96212.13
2023-04-03T03:18:48.509Z,96203.56
2023-04-03T03:23:51.669Z,96200.31
2023-04-03T03:28:53.992Z,96208.84
2023-04-03T03:33:56.723Z,96199.50
2023-04-03T03:38:59.251Z,96205.63
2023-04-03T03:44:01.677Z,96204.81
2023-04-03T03:49:04.710Z,96208.44
2023-04-03T03:54:07.940Z,96206.22
2023-04-03T03:59:10.340Z,96211.50
2023-04-03T04:04:13.544Z,96200.09
2023-04-03T04:09:16.300Z,96198.06
2023-04-03T04:14:27.477Z,96199.09
2023-04-03T04:19:29.974Z,96203.97
2023-04-03T04:24:32.407Z,96206.81
2023-04-03T04:29:36.804Z,96207.25
2023-04-03T04:34:39.214Z,96210.28
2023-04-03T04:39:41.601Z,96218.22
2023-04-03T04:44:44.764Z,96217.41
2023-04-03T04:49:48.386Z,96228.41
2023-04-03T04:54:50.942Z,96214.97
2023-04-03T04:59:53.373Z,96223.53
2023-04-03T05:04:56.012Z,96222.91
2023-04-03T05:10:01.697Z,96228.41
2023-04-03T05:15:04.179Z,96229.63
2023-04-03T05:20:06.929Z,96225.97
2023-04-03T05:25:09.294Z,96221.72
2023-04-03T05:30:12.438Z,96239.00
2023-04-03T05:35:24.860Z,96228.63
2023-04-03T05:40:32.050Z,96235.94
2023-04-03T05:45:35.370Z,96222.69
2023-04-03T05:50:42.375Z,96234.53
2023-04-03T05:55:54.886Z,96239.00
2023-04-03T06:00:58.171Z,96240.25
2023-04-03T06:06:01.371Z,96244.09
2023-04-03T06:11:12.121Z,96239.81
2023-04-03T06:16:16.318Z,96237.34
2023-04-03T06:21:20.797Z,96246.72
2023-04-03T06:26:28.275Z,96244.28
2023-04-03T06:31:30.679Z,96256.09
2023-04-03T06:36:34.022Z,96244.25
2023-04-03T06:41:37.555Z,96256.06
2023-04-03T06:46:41.724Z,96258.91
2023-04-03T06:51:44.076Z,96262.91
2023-04-03T06:56:47.177Z,96258.75
2023-04-03T07:01:49.933Z,96257.91
2023-04-03T07:06:53.877Z,96262.84
2023-04-03T07:11:56.992Z,96263.19
2023-04-03T07:16:59.322Z,96266.06
2023-04-03T07:22:02.077Z,96277.03
2023-04-03T07:27:04.955Z,96279.38
2023-04-03T07:32:07.751Z,96280.34
2023-04-03T07:37:11.245Z,96284.06
2023-04-03T07:42:14.347Z,96290.72
2023-04-03T07:47:18.269Z,96297.75
2023-04-03T07:52:20.715Z,96297.72
2023-04-03T07:57:23.477Z,96305.72
2023-04-03T08:02:26.660Z,96308.88
2023-04-03T08:07:29.401Z,96311.16
2023-04-03T08:12:33.020Z,96305.94
2023-04-03T08:17:35.745Z,96312.41
2023-04-03T08:22:39.659Z,96313.75
2023-04-03T08:27:41.996Z,96303.31
2023-04-03T08:32:45.457Z,96314.13
2023-04-03T08:37:48.732Z,96313.28
2023-04-03T08:42:51.914Z,96311.88
2023-04-03T08:47:56.411Z,96320.78
2023-04-03T08:52:59.836Z,96315.56
2023-04-03T08:58:03.399Z,96320.25
2023-04-03T09:03:05.859Z,96324.38
2023-04-03T09:08:08.604Z,96320.66
2023-04-03T09:13:10.898Z,96322.91
2023-04-03T09:18:13.215Z,96327.22
2023-04-03T09:23:15.911Z,96317.41
2023-04-03T09:28:18.392Z,96303.28
2023-04-03T09:33:21.545Z,96303.19
2023-04-03T09:38:23.860Z,96305.88
2023-04-03T09:43:28.040Z,96304.88
2023-04-03T09:48:30.888Z,96300.19
2023-04-03T09:53:34.452Z,96308.13
2023-04-03T09:58:48.924Z,96300.03
2023-04-03T10:03:52.927Z,96315.53
2023-04-03T10:08:56.748Z,96311.84
2023-04-03T10:14:00.618Z,96319.28
2023-04-03T10:19:03.445Z,96316.63
2023-04-03T10:24:07.071Z,96319.75
2023-04-03T10:29:10.273Z,96302.56
2023-04-03T10:34:13.682Z,96320.59
2023-04-03T10:39:17.416Z,96314.94
2023-04-03T10:44:20.612Z,96317.75
2023-04-03T10:49:24.168Z,96324.00
2023-04-03T10:54:27.409Z,96322.53
2023-04-03T10:59:29.799Z,96324.94
2023-04-03T11:04:34.042Z,96321.56
2023-04-03T11:09:38.173Z,96322.31
2023-04-03T11:14:41.370Z,96318.34
2023-04-03T11:19:44.676Z,96315.63
2023-04-03T11:24:47.343Z,96310.50
2023-04-03T11:29:50.438Z,96303.50
2023-04-03T11:34:55.013Z,96300.69
2023-04-03T11:39:57.658Z,96289.16
2023-04-03T11:45:00.983Z,96284.59
2023-04-03T11:50:03.748Z,96278.13
2023-04-03T11:55:06.266Z,96273.66
2023-04-03T12:00:10.733Z,96272.16
2023-04-03T12:05:23.101Z,96264.28
2023-04-03T12:10:32.326Z,96270.84
2023-04-03T12:15:35.585Z,96263.75
2023-04-03T12:20:39.565Z,96250.59
2023-04-03T12:25:44.971Z,96256.50
2023-04-03T12:30:48.560Z,96248.91
2023-04-03T12:35:51.922Z,96245.13
2023-04-03T12:40:55.619Z,96244.72
2023-04-03T12:45:58.364Z,96240.75
2023-04-03T12:51:00.839Z,96229.25
2023-04-03T12:56:06.764Z,96225.09
2023-04-03T13:01:19.909Z,96231.81
2023-04-03T13:06:23.681Z,96227.47
2023-04-03T13:11:26.175Z,96218.75
2023-04-03T13:16:29.380Z,96212.47
2023-04-03T13:21:32.638Z,96224.88
2023-04-03T13:26:34.904Z,96219.78
2023-04-03T13:31:39.785Z,96230.81
2023-04-03T13:36:42.395Z,96211.19
2023-04-03T13:41:44.791Z,96228.56
2023-04-03T13:46:47.194Z,96224.44
2023-04-03T13:51:54.226Z,96221.56
2023-04-03T13:57:07.417Z,96220.63
2023-04-03T14:02:11.248Z,96210.94
2023-04-03T14:07:13.644Z,96207.91
2023-04-03T14:12:30.062Z,96203.09
2023-04-03T14:17:43.995Z,96200.66
2023-04-03T14:22:54.626Z,96192.88
2023-04-03T14:27:57.180Z,96185.25
2023-04-03T14:32:59.939Z,96181.09
2023-04-03T14:38:02.588Z,96184.59
2023-04-03T14:43:05.091Z,96183.97
2023-04-03T14:48:07.749Z,96175.09
2023-04-03T14:53:10.058Z,96191.88
2023-04-03T14:58:13.975Z,96185.59
2023-04-03T15:03:17.572Z,96189.97
2023-04-03T15:08:20.586Z,96198.84
2023-04-03T15:13:23.826Z,96191.53
2023-04-03T15:18:27.942Z,96199.75
2023-04-03T15:23:32.472Z,96194.22
2023-04-03T15:28:35.149Z,96200.34
2023-04-03T15:33:37.638Z,96195.94
2023-04-03T15:38:40.566Z,96198.13
2023-04-03T15:43:43.021Z,96196.28
2023-04-03T15:48:45.832Z,96186.16
2023-04-03T15:53:49.332Z,96198.19
2023-04-03T15:58:51.919Z,96204.06
2023-04-03T16:03:55.021Z,96195.94
2023-04-03T16:08:58.947Z,96212.91
2023-04-03T16:14:01.393Z,96199.91
2023-04-03T16:19:03.908Z,96213.94
2023-04-03T16:24:06.575Z,96223.91
2023-04-03T16:29:09.360Z,96214.44
2023-04-03T16:34:22.442Z,96222.41
2023-04-03T16:39:25.110Z,96229.69
2023-04-03T16:44:29.845Z,96228.69
2023-04-03T16:49:35.136Z,96231.19
2023-04-03T16:54:37.598Z,96231.19
2023-04-03T16:59:39.998Z,96244.25
2023-04-03T17:04:53.330Z,96234.75
2023-04-03T17:09:56.165Z,96244.56
2023-04-03T17:15:08.591Z,96231.47
2023-04-03T17:20:11.786Z,96246.59
2023-04-03T17:25:15.917Z,96245.31
2023-04-03T17:30:19.589Z,96251.09
2023-04-03T17:35:31.954Z,96260.63
2023-04-03T17:40:34.790Z,96258.63
2023-04-03T17:45:37.549Z,96257.47
2023-04-03T17:50:40.383Z,96274.06
2023-04-03T17:55:43.702Z,96265.31
2023-04-03T18:00:46.478Z,96270.00
2023-04-03T18:05:50.812Z,96278.38
2023-04-03T18:10:53.666Z,96277.16
2023-04-03T18:15:56.606Z,96277.41
2023-04-03T18:20:58.993Z,96289.03
2023-04-03T18:26:02.613Z,96290.69
2023-04-03T18:31:05.452Z,96289.88
2023-04-03T18:36:08.129Z,96291.94
2023-04-03T18:41:10.611Z,96298.06
2023-04-03T18:46:13.728Z,96302.56
2023-04-03T18:51:16.428Z,96309.09
2023-04-03T18:56:18.810Z,96309.09
2023-04-03T19:01:21.213Z,96318.47
2023-04-03T19:06:24.196Z,96325.03
2023-04-03T19:11:30.092Z,96320.94
2023-04-03T19:16:33.637Z,96314.41
2023-04-03T19:21:40.679Z,96325.63
2023-04-03T19:26:43.929Z,96326.19
2023-04-03T19:31:46.544Z,96318.66
2023-04-03T19:36:49.516Z,96328.19
2023-04-03T19:41:51.996Z,96327.16
2023-04-03T19:46:55.516Z,96327.50
2023-04-03T19:51:58.915Z,96330.91
2023-04-03T19:57:01.342Z,96332.91
2023-04-03T20:02:03.831Z,96338.75
2023-04-03T20:07:06.970Z,96337.69
2023-04-03T20:12:10.748Z,96335.56
2023-04-03T20:17:13.526Z,96337.19
2023-04-03T20:22:16.829Z,96335.69
2023-04-03T20:27:20.243Z,96332.25
2023-04-03T20:32:22.796Z,96332.53
2023-04-03T20:37:27.891Z,96334.75
2023-04-03T20:42:31.129Z,96332.69
2023-04-03T20:47:34.727Z,96333.59
2023-04-03T20:52:47.427Z,96339.69
2023-04-03T20:57:54.278Z,96339.03
2023-04-03T21:03:07.603Z,96335.13
2023-04-03T21:08:11.335Z,96325.31
2023-04-03T21:13:17.280Z,96330.59
2023-04-03T21:18:20.447Z,96331.91
2023-04-03T21:23:24.335Z,96327.44
2023-04-03T21:28:27.358Z,96332.47
2023-04-03T21:33:30.038Z,96328.63
2023-04-03T21:38:32.433Z,96337.00
2023-04-03T21:43:35.431Z,96338.31
2023-04-03T21:48:41.593Z,96337.44
2023-04-03T21:53:45.829Z,96330.75
2023-04-03T21:58:51.029Z,96332.13
2023-04-03T22:03:53.474Z,96332.88
2023-04-03T22:08:57.093Z,96329.34
2023-04-03T22:14:00.095Z,96323.47
2023-04-03T22:19:02.907Z,96321.84
2023-04-03T22:24:06.253Z,96319.56
2023-04-03T22:29:08.772Z,96327.97
2023-04-03T22:34:11.208Z,96322.06
2023-04-03T22:39:16.411Z,96319.16
2023-04-03T22:44:18.885Z,96321.75
2023-04-03T22:49:21.645Z,96312.75
2023-04-03T22:54:24.506Z,96318.22
2023-04-03T22:59:27.096Z,96322.28
2023-04-03T23:04:29.691Z,96324.75
2023-04-03T23:09:42.143Z,96324.13
2023-04-03T23:14:44.937Z,96319.16
2023-04-03T23:19:48.054Z,96321.25
2023-04-03T23:24:50.833Z,96316.38
2023-04-03T23:29:53.946Z,96329.03
2023-04-03T23:34:56.687Z,96316.19
2023-04-03T23:40:02.218Z,96314.88
2023-04-03T23:45:05.453Z,96311.66
2023-04-03T23:50:07.843Z,96299.19
2023-04-03T23:55:10.287Z,96302.16
